Time;durP1;ratioP1;P1;durP2;ratioP2;P2;SDS_P1;SDS_P2;PMS_P1;PMS_P2;Temp;Humidity;BMP_temperature;BMP_pressure;BME280_temperature;BME280_humidity;BME280_pressure;Samples;Min_cycle;Max_cycle;Signal;HPM_P1;HPM_P2
2023/05/17 00:01:58;;;;;;;2.60;1.20;;;;;;;;;;4961925;28;20457;-92
2023/05/17 00:04:24;;;;;;;3.50;1.43;;;;;;;;;;4960398;28;20878;-93
2023/05/17 00:06:51;;;;;;;2.70;1.50;;;;;;;;;;4951785;28;20442;-93
2023/05/17 00:09:18;;;;;;;1.70;1.40;;;;;;;;;;4974280;28;20434;-93
2023/05/17 00:11:46;;;;;;;2.60;1.33;;;;;;;;;;4988842;28;20599;-94
2023/05/17 00:14:12;;;;;;;2.10;1.83;;;;;;;;;;4978895;28;20438;-94
2023/05/17 00:16:38;;;;;;;3.30;1.50;;;;;;;;;;4991853;28;20438;-91
2023/05/17 00:19:04;;;;;;;2.53;1.20;;;;;;;;;;5010462;28;20542;-93
2023/05/17 00:21:30;;;;;;;2.60;1.70;;;;;;;;;;4977923;28;20421;-94
2023/05/17 00:23:56;;;;;;;3.03;1.20;;;;;;;;;;4993592;28;20878;-93
2023/05/17 00:26:22;;;;;;;2.97;1.80;;;;;;;;;;4961689;28;20525;-93
2023/05/17 00:28:48;;;;;;;4.13;1.73;;;;;;;;;;4977232;28;20909;-93
2023/05/17 00:31:14;;;;;;;2.30;1.57;;;;;;;;;;4991991;28;20437;-92
2023/05/17 00:33:40;;;;;;;7.33;1.90;;;;;;;;;;4982026;28;20516;-94
2023/05/17 00:36:06;;;;;;;3.37;1.93;;;;;;;;;;4992598;28;20470;-93
2023/05/17 00:38:32;;;;;;;3.17;1.63;;;;;;;;;;4998175;28;20500;-93
2023/05/17 00:40:58;;;;;;;2.07;1.80;;;;;;;;;;4993707;28;20441;-93
2023/05/17 00:43:24;;;;;;;3.77;1.60;;;;;;;;;;4993976;28;20461;-93
2023/05/17 00:45:51;;;;;;;2.23;1.63;;;;;;;;;;4975785;28;20464;-93
2023/05/17 00:48:17;;;;;;;2.50;1.97;;;;;;;;;;4961637;28;20934;-92
2023/05/17 00:50:43;;;;;;;2.03;1.40;;;;;;;;;;4959567;28;20437;-93
2023/05/17 00:53:10;;;;;;;2.03;1.23;;;;;;;;;;4947432;28;20957;-93
2023/05/17 00:55:36;;;;;;;6.37;1.73;;;;;;;;;;4960758;28;20453;-93
2023/05/17 00:58:03;;;;;;;4.73;1.50;;;;;;;;;;4958893;28;20890;-93
2023/05/17 01:00:29;;;;;;;1.80;1.60;;;;;;;;;;4960924;28;20525;-93
2023/05/17 01:02:55;;;;;;;4.90;1.67;;;;;;;;;;4972447;28;20529;-93
2023/05/17 01:05:21;;;;;;;3.63;1.43;;;;;;;;;;4960449;28;20441;-93
2023/05/17 01:07:47;;;;;;;3.33;2.17;;;;;;;;;;4959766;28;20428;-93
2023/05/17 01:10:13;;;;;;;4.37;1.40;;;;;;;;;;4957140;28;20431;-92
2023/05/17 01:12:50;;;;;;;2.00;1.53;;;;;;;;;;4964587;28;20437;-93
2023/05/17 01:15:16;;;;;;;5.80;2.43;;;;;;;;;;4956810;28;20444;-93
2023/05/17 01:17:50;;;;;;;2.13;1.93;;;;;;;;;;4972354;28;20430;-93
2023/05/17 01:20:16;;;;;;;2.33;1.63;;;;;;;;;;4974106;28;20506;-92
2023/05/17 01:22:51;;;;;;;2.80;1.43;;;;;;;;;;4986809;28;20492;-93
2023/05/17 01:25:27;;;;;;;2.17;1.30;;;;;;;;;;4975095;28;20517;-93
2023/05/17 01:27:53;;;;;;;2.17;1.90;;;;;;;;;;4972673;28;20433;-93
2023/05/17 01:30:20;;;;;;;2.00;1.07;;;;;;;;;;4991555;28;20526;-93
2023/05/17 01:32:46;;;;;;;2.80;1.37;;;;;;;;;;4991987;28;20430;-93
2023/05/17 01:35:12;;;;;;;2.47;1.10;;;;;;;;;;4976582;28;20448;-93
2023/05/17 01:37:38;;;;;;;2.00;1.40;;;;;;;;;;4988735;28;20468;-93
2023/05/17 01:40:05;;;;;;;4.40;1.50;;;;;;;;;;4993128;28;20941;-93
2023/05/17 01:42:31;;;;;;;2.90;1.50;;;;;;;;;;4992423;28;20991;-92
2023/05/17 01:45:09;;;;;;;4.07;1.70;;;;;;;;;;4980040;28;20441;-93
2023/05/17 01:47:46;;;;;;;5.40;1.80;;;;;;;;;;4975675;28;20433;-92
2023/05/17 01:50:13;;;;;;;3.97;1.73;;;;;;;;;;4974129;28;20438;-92
2023/05/17 01:52:42;;;;;;;2.90;1.77;;;;;;;;;;4991953;28;20944;-93
2023/05/17 01:55:10;;;;;;;5.97;3.20;;;;;;;;;;4974497;28;20435;-92
2023/05/17 01:57:36;;;;;;;1.67;1.37;;;;;;;;;;4976082;28;20426;-92
2023/05/17 02:00:04;;;;;;;2.87;1.47;;;;;;;;;;4998445;28;20441;-93
2023/05/17 02:02:30;;;;;;;4.53;1.77;;;;;;;;;;4996982;28;20521;-93
2023/05/17 02:04:57;;;;;;;5.27;1.23;;;;;;;;;;4999972;28;20433;-92
2023/05/17 02:07:23;;;;;;;2.43;1.60;;;;;;;;;;4987637;28;20425;-93
2023/05/17 02:09:49;;;;;;;4.17;2.07;;;;;;;;;;4977633;28;20434;-93
2023/05/17 02:12:15;;;;;;;4.40;1.77;;;;;;;;;;4990971;28;20618;-93
2023/05/17 02:14:41;;;;;;;4.37;1.50;;;;;;;;;;4974418;28;20434;-94
2023/05/17 02:17:07;;;;;;;2.23;1.60;;;;;;;;;;4975473;28;20452;-94
2023/05/17 02:19:33;;;;;;;4.13;2.10;;;;;;;;;;4974733;28;20442;-93
2023/05/17 02:21:59;;;;;;;4.10;1.30;;;;;;;;;;4991140;28;20509;-93
2023/05/17 02:24:43;;;;;;;3.83;1.70;;;;;;;;;;4954890;28;20639;-93
2023/05/17 02:27:09;;;;;;;2.23;1.37;;;;;;;;;;4975357;28;20433;-93
2023/05/17 02:29:35;;;;;;;2.70;1.53;;;;;;;;;;4992933;28;20425;-94
2023/05/17 02:32:02;;;;;;;2.83;1.70;;;;;;;;;;4973650;28;20434;-93
2023/05/17 02:34:28;;;;;;;3.50;1.50;;;;;;;;;;4976951;28;20525;-94
2023/05/17 02:36:54;;;;;;;4.90;1.93;;;;;;;;;;4995504;28;20528;-94
2023/05/17 02:39:20;;;;;;;2.23;1.87;;;;;;;;;;4993206;28;20979;-94
2023/05/17 02:41:46;;;;;;;3.03;1.87;;;;;;;;;;4975799;28;20552;-94
2023/05/17 02:44:12;;;;;;;4.60;1.93;;;;;;;;;;4975385;28;20488;-94
2023/05/17 02:46:38;;;;;;;2.20;1.53;;;;;;;;;;4963260;28;20436;-93
2023/05/17 02:49:05;;;;;;;6.70;2.07;;;;;;;;;;5008806;28;20429;-95
2023/05/17 02:51:31;;;;;;;2.70;1.83;;;;;;;;;;4990466;28;20493;-94
2023/05/17 02:53:58;;;;;;;2.07;1.40;;;;;;;;;;4990897;28;20453;-93
2023/05/17 02:56:24;;;;;;;2.53;1.30;;;;;;;;;;4992350;28;20517;-94
2023/05/17 02:58:50;;;;;;;2.63;1.90;;;;;;;;;;4988909;28;20429;-94
2023/05/17 03:01:16;;;;;;;4.20;1.43;;;;;;;;;;4975508;28;20438;-94
2023/05/17 03:03:42;;;;;;;2.47;1.30;;;;;;;;;;4989652;28;20554;-94
2023/05/17 03:06:08;;;;;;;2.60;1.90;;;;;;;;;;4992331;28;20436;-94
2023/05/17 03:08:34;;;;;;;3.30;1.87;;;;;;;;;;4995626;28;21040;-94
2023/05/17 03:11:00;;;;;;;5.30;1.40;;;;;;;;;;4992271;28;20469;-94
2023/05/17 03:13:26;;;;;;;2.57;1.50;;;;;;;;;;4995185;28;20467;-94
2023/05/17 03:15:52;;;;;;;3.07;1.77;;;;;;;;;;4988575;28;20434;-93
2023/05/17 03:18:18;;;;;;;5.10;1.73;;;;;;;;;;4994551;28;20464;-93
2023/05/17 03:20:46;;;;;;;2.97;1.93;;;;;;;;;;4976405;28;20458;-94
2023/05/17 03:23:12;;;;;;;2.33;1.40;;;;;;;;;;4987568;28;20466;-93
2023/05/17 03:25:38;;;;;;;2.80;2.27;;;;;;;;;;4975451;28;20524;-93
2023/05/17 03:28:04;;;;;;;2.10;1.60;;;;;;;;;;4975162;28;20434;-89
2023/05/17 03:30:30;;;;;;;3.30;2.10;;;;;;;;;;4986547;28;20520;-91
2023/05/17 03:32:56;;;;;;;7.93;1.80;;;;;;;;;;4993741;28;20438;-92
2023/05/17 03:35:22;;;;;;;2.90;1.40;;;;;;;;;;4969373;28;20438;-93
2023/05/17 03:37:48;;;;;;;6.93;2.10;;;;;;;;;;4976334;28;20457;-92
2023/05/17 03:40:14;;;;;;;2.13;1.40;;;;;;;;;;4992717;28;20461;-93
2023/05/17 03:42:40;;;;;;;3.03;1.30;;;;;;;;;;4992863;28;20466;-90
2023/05/17 03:45:07;;;;;;;2.00;1.40;;;;;;;;;;5000545;28;20462;-96
2023/05/17 03:47:33;;;;;;;2.33;1.50;;;;;;;;;;5002646;28;20445;-92
2023/05/17 03:50:02;;;;;;;1.83;1.53;;;;;;;;;;4975426;28;20485;-92
2023/05/17 03:52:28;;;;;;;6.53;1.90;;;;;;;;;;4992112;28;20442;-91
2023/05/17 03:54:54;;;;;;;2.50;1.60;;;;;;;;;;4987160;28;20448;-91
2023/05/17 03:57:20;;;;;;;1.67;1.40;;;;;;;;;;4992868;28;20964;-91
2023/05/17 03:59:46;;;;;;;2.80;1.80;;;;;;;;;;4964215;28;20442;-92
2023/05/17 04:02:15;;;;;;;3.73;1.93;;;;;;;;;;4992535;28;20572;-92
2023/05/17 04:04:41;;;;;;;2.40;1.80;;;;;;;;;;4978559;28;20441;-91
2023/05/17 04:07:07;;;;;;;3.87;1.50;;;;;;;;;;5010194;28;20466;-91
2023/05/17 04:09:33;;;;;;;4.63;1.90;;;;;;;;;;4990759;28;20822;-92
2023/05/17 04:12:00;;;;;;;5.80;2.10;;;;;;;;;;4977372;28;20834;-92
2023/05/17 04:14:25;;;;;;;3.13;1.90;;;;;;;;;;4992907;28;20438;-92
2023/05/17 04:16:51;;;;;;;4.83;2.07;;;;;;;;;;4992136;28;20955;-91
2023/05/17 04:19:17;;;;;;;4.50;2.13;;;;;;;;;;4995432;28;20500;-93
2023/05/17 04:21:44;;;;;;;1.60;1.37;;;;;;;;;;4994341;28;20465;-92
2023/05/17 04:24:10;;;;;;;2.60;1.40;;;;;;;;;;4994346;28;20445;-91
2023/05/17 04:26:36;;;;;;;3.83;2.13;;;;;;;;;;5001635;28;20472;-90
2023/05/17 04:29:02;;;;;;;2.70;2.00;;;;;;;;;;4995451;28;20521;-91
2023/05/17 04:31:28;;;;;;;4.10;2.00;;;;;;;;;;4995599;28;20473;-91
2023/05/17 04:33:54;;;;;;;5.23;1.87;;;;;;;;;;4977535;28;20442;-91
2023/05/17 04:36:21;;;;;;;4.70;3.00;;;;;;;;;;4979621;28;20456;-90
2023/05/17 04:38:47;;;;;;;3.73;1.90;;;;;;;;;;4990816;28;20430;-90
2023/05/17 04:41:13;;;;;;;2.60;2.03;;;;;;;;;;4994642;28;20529;-90
2023/05/17 04:43:39;;;;;;;3.67;2.00;;;;;;;;;;4983691;28;20474;-92
2023/05/17 04:46:05;;;;;;;4.27;2.33;;;;;;;;;;4982821;28;20440;-90
2023/05/17 04:48:31;;;;;;;2.17;1.97;;;;;;;;;;4965272;28;20466;-91
2023/05/17 04:51:06;;;;;;;4.53;1.93;;;;;;;;;;4977617;28;20414;-91
2023/05/17 04:53:32;;;;;;;6.83;2.10;;;;;;;;;;4994180;28;20441;-92
2023/05/17 04:55:58;;;;;;;3.70;2.30;;;;;;;;;;4995038;28;20440;-91
2023/05/17 04:58:24;;;;;;;3.87;1.90;;;;;;;;;;4981352;28;20445;-92
2023/05/17 05:00:51;;;;;;;5.33;2.13;;;;;;;;;;4978109;28;20433;-90
2023/05/17 05:03:17;;;;;;;4.47;2.07;;;;;;;;;;4996867;28;20465;-92
2023/05/17 05:05:43;;;;;;;3.30;1.87;;;;;;;;;;4978740;28;20434;-91
2023/05/17 05:08:10;;;;;;;2.23;1.47;;;;;;;;;;4979652;28;20442;-91
2023/05/17 05:10:36;;;;;;;3.30;2.47;;;;;;;;;;4977000;28;20422;-91
2023/05/17 05:13:10;;;;;;;5.70;2.43;;;;;;;;;;4995897;28;20444;-92
2023/05/17 05:15:36;;;;;;;3.07;2.20;;;;;;;;;;4992772;28;20441;-92
2023/05/17 05:18:02;;;;;;;3.03;2.27;;;;;;;;;;4981968;28;20575;-92
2023/05/17 05:20:28;;;;;;;3.87;2.27;;;;;;;;;;4994213;28;20553;-92
2023/05/17 05:22:56;;;;;;;2.93;1.60;;;;;;;;;;4977476;28;20466;-92
2023/05/17 05:25:22;;;;;;;3.50;1.90;;;;;;;;;;4993445;28;20437;-90
2023/05/17 05:27:48;;;;;;;6.93;2.00;;;;;;;;;;4977255;28;20433;-92
2023/05/17 05:30:21;;;;;;;4.27;2.20;;;;;;;;;;4975703;28;20437;-92
2023/05/17 05:32:50;;;;;;;2.00;1.67;;;;;;;;;;4976301;28;20449;-91
2023/05/17 05:35:16;;;;;;;2.33;1.50;;;;;;;;;;4973289;28;20524;-91
2023/05/17 05:37:42;;;;;;;2.33;1.77;;;;;;;;;;4992780;28;20438;-91
2023/05/17 05:40:09;;;;;;;3.60;2.00;;;;;;;;;;4990290;28;20505;-92
2023/05/17 05:42:35;;;;;;;3.37;1.53;;;;;;;;;;4972563;28;20461;-91
2023/05/17 05:45:01;;;;;;;2.13;1.47;;;;;;;;;;4989849;28;20493;-92
2023/05/17 05:47:27;;;;;;;10.00;2.10;;;;;;;;;;4991791;28;20434;-92
2023/05/17 05:49:53;;;;;;;3.30;2.20;;;;;;;;;;4975230;28;20434;-92
2023/05/17 05:52:19;;;;;;;3.07;2.00;;;;;;;;;;4991742;28;20421;-92
2023/05/17 05:54:45;;;;;;;3.43;2.00;;;;;;;;;;4991700;28;20445;-91
2023/05/17 05:57:11;;;;;;;4.50;2.33;;;;;;;;;;4972876;28;20442;-92
2023/05/17 05:59:37;;;;;;;2.50;1.70;;;;;;;;;;4992528;28;20445;-90
2023/05/17 06:02:03;;;;;;;2.70;1.97;;;;;;;;;;4973450;28;20796;-92
2023/05/17 06:04:29;;;;;;;2.63;1.87;;;;;;;;;;4993198;28;20449;-92
2023/05/17 06:06:55;;;;;;;2.40;2.00;;;;;;;;;;4975224;28;20438;-92
2023/05/17 06:09:21;;;;;;;3.90;2.33;;;;;;;;;;4991529;28;20430;-92
2023/05/17 06:11:47;;;;;;;6.10;2.57;;;;;;;;;;4990889;28;20430;-91
2023/05/17 06:14:13;;;;;;;5.00;2.60;;;;;;;;;;4975847;28;20425;-92
2023/05/17 06:16:39;;;;;;;2.53;1.70;;;;;;;;;;4984218;28;20486;-91
2023/05/17 06:19:05;;;;;;;6.53;3.30;;;;;;;;;;4975907;28;20421;-91
2023/05/17 06:21:31;;;;;;;5.50;2.87;;;;;;;;;;4987772;28;20433;-91
2023/05/17 06:24:01;;;;;;;3.60;1.93;;;;;;;;;;4956407;28;21124;-92
2023/05/17 06:26:27;;;;;;;3.30;2.50;;;;;;;;;;4972339;28;20501;-92
2023/05/17 06:28:53;;;;;;;8.63;2.33;;;;;;;;;;4975847;28;20441;-91
2023/05/17 06:31:20;;;;;;;6.30;2.10;;;;;;;;;;4952914;28;20446;-91
2023/05/17 06:33:45;;;;;;;3.50;1.70;;;;;;;;;;4940806;28;21075;-93
2023/05/17 06:36:12;;;;;;;2.63;2.07;;;;;;;;;;4922197;29;20436;-92
2023/05/17 06:38:38;;;;;;;3.93;2.13;;;;;;;;;;4934425;28;20446;-92
2023/05/17 06:41:04;;;;;;;4.10;2.20;;;;;;;;;;4934351;29;20432;-92
2023/05/17 06:43:29;;;;;;;2.57;1.90;;;;;;;;;;4934627;28;20486;-92
2023/05/17 06:45:55;;;;;;;4.20;2.70;;;;;;;;;;4924590;28;20453;-92
2023/05/17 06:48:21;;;;;;;7.30;2.80;;;;;;;;;;4935897;28;20501;-93
2023/05/17 06:50:47;;;;;;;2.90;2.13;;;;;;;;;;4936261;29;20469;-91
2023/05/17 06:53:13;;;;;;;3.60;2.77;;;;;;;;;;4936366;28;20877;-92
2023/05/17 06:55:40;;;;;;;4.40;2.00;;;;;;;;;;4940617;29;20477;-91
2023/05/17 06:58:09;;;;;;;7.00;2.30;;;;;;;;;;4933906;29;20471;-91
2023/05/17 07:00:35;;;;;;;5.40;2.33;;;;;;;;;;4943548;28;20442;-91
2023/05/17 07:03:01;;;;;;;5.10;3.17;;;;;;;;;;4968224;28;20513;-92
2023/05/17 07:05:29;;;;;;;3.77;2.13;;;;;;;;;;4989871;28;20516;-92
2023/05/17 07:07:55;;;;;;;4.10;2.60;;;;;;;;;;4988913;28;20503;-91
2023/05/17 07:10:21;;;;;;;4.90;2.23;;;;;;;;;;5006725;28;20430;-91
2023/05/17 07:12:47;;;;;;;6.63;2.73;;;;;;;;;;4985905;28;20456;-91
2023/05/17 07:15:13;;;;;;;4.27;2.20;;;;;;;;;;4990693;28;20454;-92
2023/05/17 07:17:39;;;;;;;4.40;2.20;;;;;;;;;;4971625;28;20457;-92
2023/05/17 07:20:06;;;;;;;4.97;2.60;;;;;;;;;;4991437;28;20430;-89
2023/05/17 07:22:31;;;;;;;2.93;2.60;;;;;;;;;;4990801;28;20568;-92
2023/05/17 07:24:58;;;;;;;3.27;2.10;;;;;;;;;;4979926;28;20477;-90
2023/05/17 07:27:24;;;;;;;5.30;3.20;;;;;;;;;;4990268;28;21166;-91
2023/05/17 07:29:50;;;;;;;5.60;2.33;;;;;;;;;;4976756;28;20435;-91
2023/05/17 07:32:16;;;;;;;6.07;2.63;;;;;;;;;;4972215;28;20434;-91
2023/05/17 07:34:42;;;;;;;4.07;2.47;;;;;;;;;;4974240;28;20524;-90
2023/05/17 07:37:09;;;;;;;8.23;2.30;;;;;;;;;;4974993;28;20514;-88
2023/05/17 07:39:34;;;;;;;6.93;3.37;;;;;;;;;;4977792;28;20438;-90
2023/05/17 07:42:00;;;;;;;6.47;3.60;;;;;;;;;;4994291;28;20456;-90
2023/05/17 07:44:26;;;;;;;9.80;3.20;;;;;;;;;;4977137;28;20489;-91
2023/05/17 07:46:52;;;;;;;4.23;3.10;;;;;;;;;;4972625;28;20441;-92
2023/05/17 07:49:18;;;;;;;6.03;3.40;;;;;;;;;;4993486;28;20421;-93
2023/05/17 07:51:45;;;;;;;12.37;3.00;;;;;;;;;;4996229;28;20433;-91
2023/05/17 07:54:14;;;;;;;6.67;2.90;;;;;;;;;;4982602;28;20433;-91
2023/05/17 07:56:40;;;;;;;5.70;3.10;;;;;;;;;;4979173;28;20429;-91
2023/05/17 07:59:06;;;;;;;14.93;3.10;;;;;;;;;;4971165;28;20430;-91
2023/05/17 08:01:33;;;;;;;5.13;2.80;;;;;;;;;;5000131;28;20509;-90
2023/05/17 08:03:59;;;;;;;7.43;3.27;;;;;;;;;;4994435;28;20430;-89
2023/05/17 08:06:25;;;;;;;6.10;2.80;;;;;;;;;;4975404;28;20951;-90
2023/05/17 08:08:51;;;;;;;4.40;3.20;;;;;;;;;;4990868;28;20415;-91
2023/05/17 08:11:17;;;;;;;7.63;3.50;;;;;;;;;;4989466;28;20437;-90
2023/05/17 08:13:44;;;;;;;7.30;2.93;;;;;;;;;;4991471;28;20809;-91
2023/05/17 08:16:11;;;;;;;3.80;2.80;;;;;;;;;;4992675;28;20444;-91
2023/05/17 08:18:37;;;;;;;8.03;3.77;;;;;;;;;;4991356;28;20422;-91
2023/05/17 08:21:03;;;;;;;8.00;2.70;;;;;;;;;;4979706;28;20504;-91
2023/05/17 08:23:29;;;;;;;6.60;3.00;;;;;;;;;;5011823;28;20493;-91
2023/05/17 08:25:55;;;;;;;3.60;2.50;;;;;;;;;;4998266;28;20432;-91
2023/05/17 08:28:21;;;;;;;5.37;2.70;;;;;;;;;;4977127;28;20434;-90
2023/05/17 08:30:47;;;;;;;4.90;2.63;;;;;;;;;;4992779;28;20409;-90
2023/05/17 08:33:13;;;;;;;6.30;2.83;;;;;;;;;;4978000;28;20442;-89
2023/05/17 08:35:39;;;;;;;4.17;2.90;;;;;;;;;;4960893;28;20472;-91
2023/05/17 08:38:05;;;;;;;5.87;2.80;;;;;;;;;;4992020;28;20536;-91
2023/05/17 08:40:31;;;;;;;5.07;2.93;;;;;;;;;;4994624;28;20465;-90
2023/05/17 08:42:57;;;;;;;3.40;2.67;;;;;;;;;;4973400;28;20469;-90
2023/05/17 08:45:26;;;;;;;9.57;3.10;;;;;;;;;;4992484;28;21053;-89
2023/05/17 08:47:53;;;;;;;10.67;3.20;;;;;;;;;;4980892;28;20421;-93
2023/05/17 08:50:19;;;;;;;7.23;3.90;;;;;;;;;;4981834;28;20438;-93
2023/05/17 08:52:45;;;;;;;3.93;2.80;;;;;;;;;;4979178;28;20492;-91
2023/05/17 08:55:15;;;;;;;4.53;3.50;;;;;;;;;;4974393;28;20560;-92
2023/05/17 08:57:41;;;;;;;5.30;3.03;;;;;;;;;;4999164;28;20520;-91
2023/05/17 09:00:13;;;;;;;4.40;3.10;;;;;;;;;;4978068;28;20957;-92
2023/05/17 09:02:40;;;;;;;3.30;2.50;;;;;;;;;;4996692;28;20524;-92
2023/05/17 09:05:07;;;;;;;6.63;3.17;;;;;;;;;;4979388;28;20488;-91
2023/05/17 09:07:33;;;;;;;6.20;3.47;;;;;;;;;;4959362;28;20839;-91
2023/05/17 09:09:59;;;;;;;5.67;3.30;;;;;;;;;;4990299;28;20446;-91
2023/05/17 09:12:25;;;;;;;6.90;2.60;;;;;;;;;;4992324;28;20441;-91
2023/05/17 09:14:51;;;;;;;4.87;2.70;;;;;;;;;;4975639;28;20534;-90
2023/05/17 09:17:18;;;;;;;4.60;2.60;;;;;;;;;;5002618;28;20528;-92
2023/05/17 09:19:44;;;;;;;6.50;3.00;;;;;;;;;;4977596;28;20460;-92
2023/05/17 09:22:16;;;;;;;4.63;2.87;;;;;;;;;;4977410;28;21147;-91
2023/05/17 09:24:42;;;;;;;4.63;3.03;;;;;;;;;;4996411;28;20430;-91
2023/05/17 09:27:08;;;;;;;5.13;2.20;;;;;;;;;;4974575;28;20445;-91
2023/05/17 09:29:35;;;;;;;3.67;2.50;;;;;;;;;;4988496;28;20426;-91
2023/05/17 09:32:13;;;;;;;4.63;2.40;;;;;;;;;;4975078;28;20434;-90
2023/05/17 09:34:40;;;;;;;6.70;2.83;;;;;;;;;;4991874;28;20457;-91
2023/05/17 09:37:07;;;;;;;3.90;2.40;;;;;;;;;;5008999;28;20767;-91
2023/05/17 09:39:33;;;;;;;5.10;2.80;;;;;;;;;;4976144;28;20433;-93
2023/05/17 09:41:59;;;;;;;6.00;3.63;;;;;;;;;;4993008;28;20596;-94
2023/05/17 09:44:25;;;;;;;5.40;2.90;;;;;;;;;;4988061;28;20455;-91
2023/05/17 09:46:51;;;;;;;2.93;2.20;;;;;;;;;;4976723;28;20438;-91
2023/05/17 09:49:17;;;;;;;2.70;2.20;;;;;;;;;;4976084;28;20521;-91
2023/05/17 09:51:44;;;;;;;5.50;2.93;;;;;;;;;;4988732;28;20521;-92
2023/05/17 09:54:10;;;;;;;3.03;1.90;;;;;;;;;;4975684;28;21043;-91
2023/05/17 09:56:36;;;;;;;3.37;2.77;;;;;;;;;;4988507;28;20434;-92
2023/05/17 09:59:03;;;;;;;4.00;2.60;;;;;;;;;;4989454;28;20477;-91
2023/05/17 10:01:29;;;;;;;6.40;2.40;;;;;;;;;;4975146;28;20446;-92
2023/05/17 10:03:56;;;;;;;4.93;2.37;;;;;;;;;;4973139;28;20485;-91
2023/05/17 10:06:22;;;;;;;5.07;3.10;;;;;;;;;;4978378;28;20450;-89
2023/05/17 10:08:58;;;;;;;5.50;2.57;;;;;;;;;;4977309;28;20453;-91
2023/05/17 10:11:27;;;;;;;6.70;3.40;;;;;;;;;;4973005;28;20424;-91
2023/05/17 10:13:55;;;;;;;3.07;2.23;;;;;;;;;;4992731;28;20437;-90
2023/05/17 10:16:22;;;;;;;4.80;2.93;;;;;;;;;;4961367;28;20438;-90
2023/05/17 10:18:48;;;;;;;5.47;2.70;;;;;;;;;;4992549;28;20525;-91
2023/05/17 10:21:14;;;;;;;6.47;3.07;;;;;;;;;;4974832;28;21169;-91
2023/05/17 10:23:43;;;;;;;4.50;2.73;;;;;;;;;;4979112;28;20544;-91
2023/05/17 10:26:12;;;;;;;5.67;2.53;;;;;;;;;;4985859;28;20429;-90
2023/05/17 10:28:38;;;;;;;4.37;2.77;;;;;;;;;;4992137;28;21021;-91
2023/05/17 10:31:04;;;;;;;3.80;2.37;;;;;;;;;;4995967;28;20430;-88
2023/05/17 10:33:31;;;;;;;6.00;2.87;;;;;;;;;;4986393;28;20445;-91
2023/05/17 10:36:02;;;;;;;6.93;3.17;;;;;;;;;;4988224;28;20493;-90
2023/05/17 10:38:28;;;;;;;4.07;2.73;;;;;;;;;;4974607;28;20430;-93
2023/05/17 10:40:54;;;;;;;6.13;2.73;;;;;;;;;;4980064;28;20422;-91
2023/05/17 10:43:20;;;;;;;6.67;3.17;;;;;;;;;;4966825;28;20529;-91
2023/05/17 10:45:46;;;;;;;8.80;3.73;;;;;;;;;;4975943;28;20458;-89
2023/05/17 10:48:16;;;;;;;4.87;2.50;;;;;;;;;;4993257;28;20449;-90
2023/05/17 10:50:43;;;;;;;5.63;2.53;;;;;;;;;;4987977;28;21072;-91
2023/05/17 10:53:15;;;;;;;3.90;3.00;;;;;;;;;;4983205;28;20813;-93
2023/05/17 10:55:42;;;;;;;3.97;2.20;;;;;;;;;;4971989;28;20434;-89
2023/05/17 10:58:19;;;;;;;6.47;3.43;;;;;;;;;;4977738;28;20449;-93
2023/05/17 11:00:46;;;;;;;6.33;2.80;;;;;;;;;;4970503;28;20442;-92
2023/05/17 11:03:33;;;;;;;6.10;3.20;;;;;;;;;;4973267;28;20466;-90
2023/05/17 11:06:11;;;;;;;6.03;3.13;;;;;;;;;;4990276;28;20520;-90
2023/05/17 11:08:41;;;;;;;4.03;2.20;;;;;;;;;;4991347;28;21008;-91
2023/05/17 11:11:10;;;;;;;6.10;3.97;;;;;;;;;;4991203;28;20477;-92
2023/05/17 11:13:57;;;;;;;8.53;3.93;;;;;;;;;;4949889;28;20451;-90
2023/05/17 11:16:36;;;;;;;4.23;2.60;;;;;;;;;;4940565;29;20432;-95
2023/05/17 11:19:09;;;;;;;4.00;3.10;;;;;;;;;;4917576;29;20447;-90
2023/05/17 11:21:35;;;;;;;5.07;2.70;;;;;;;;;;4929800;29;20848;-90
2023/05/17 11:24:02;;;;;;;5.23;3.27;;;;;;;;;;4924605;28;20830;-92
2023/05/17 11:26:29;;;;;;;3.73;2.30;;;;;;;;;;4929330;29;20539;-92
2023/05/17 11:29:02;;;;;;;4.40;2.33;;;;;;;;;;4935662;29;20491;-89
2023/05/17 11:31:34;;;;;;;4.60;2.20;;;;;;;;;;4920844;29;20835;-93
2023/05/17 11:34:04;;;;;;;6.67;2.97;;;;;;;;;;4940295;29;20456;-91
2023/05/17 11:36:30;;;;;;;4.47;2.93;;;;;;;;;;4919130;29;20443;-91
2023/05/17 11:39:16;;;;;;;6.27;2.80;;;;;;;;;;4937168;28;20534;-91
2023/05/17 11:41:51;;;;;;;7.80;3.03;;;;;;;;;;4954333;28;20482;-92
2023/05/17 11:44:27;;;;;;;4.40;3.03;;;;;;;;;;4955342;28;20487;-93
2023/05/17 11:47:04;;;;;;;3.90;2.67;;;;;;;;;;4979529;28;20484;-92
2023/05/17 11:49:31;;;;;;;6.20;3.50;;;;;;;;;;4974626;28;20484;-92
2023/05/17 11:51:58;;;;;;;5.63;3.20;;;;;;;;;;4977647;28;20434;-92
2023/05/17 11:54:24;;;;;;;4.60;3.10;;;;;;;;;;4989999;28;20444;-92
2023/05/17 11:56:51;;;;;;;4.27;2.97;;;;;;;;;;4989642;28;20496;-92
2023/05/17 11:59:20;;;;;;;4.13;3.23;;;;;;;;;;4974217;28;20459;-92
2023/05/17 12:01:47;;;;;;;5.27;2.60;;;;;;;;;;4972050;28;20455;-91
2023/05/17 12:04:13;;;;;;;3.63;2.53;;;;;;;;;;4991715;28;20479;-92
2023/05/17 12:06:39;;;;;;;4.83;2.77;;;;;;;;;;4971362;28;20554;-92
2023/05/17 12:09:09;;;;;;;4.03;2.60;;;;;;;;;;4976962;28;20434;-92
2023/05/17 12:11:35;;;;;;;5.77;2.97;;;;;;;;;;4990882;28;20437;-93
2023/05/17 12:14:01;;;;;;;3.57;2.83;;;;;;;;;;4992531;28;20429;-92
2023/05/17 12:16:27;;;;;;;3.00;2.43;;;;;;;;;;4979733;28;20965;-92
2023/05/17 12:18:53;;;;;;;5.20;2.70;;;;;;;;;;4999993;28;20464;-93
2023/05/17 12:21:20;;;;;;;2.83;2.10;;;;;;;;;;4978834;28;20438;-92
2023/05/17 12:23:47;;;;;;;4.83;2.50;;;;;;;;;;4982187;28;20485;-95
2023/05/17 12:26:14;;;;;;;3.80;2.07;;;;;;;;;;4996635;28;20441;-92
2023/05/17 12:29:00;;;;;;;6.40;2.90;;;;;;;;;;4996344;28;20465;-92
2023/05/17 12:31:26;;;;;;;4.43;2.40;;;;;;;;;;4977467;28;20432;-92
2023/05/17 12:33:52;;;;;;;5.90;2.87;;;;;;;;;;4982002;28;20442;-92
2023/05/17 12:36:18;;;;;;;5.17;2.70;;;;;;;;;;4976854;28;20452;-91
2023/05/17 12:38:45;;;;;;;5.07;2.77;;;;;;;;;;4995965;28;20438;-91
2023/05/17 12:41:12;;;;;;;7.13;3.10;;;;;;;;;;4976606;28;20434;-93
2023/05/17 12:43:38;;;;;;;4.57;2.60;;;;;;;;;;4959928;28;20545;-93
2023/05/17 12:46:17;;;;;;;6.80;2.80;;;;;;;;;;4985791;28;20441;-93
2023/05/17 12:48:43;;;;;;;5.23;2.83;;;;;;;;;;4982065;28;20457;-92
2023/05/17 12:51:10;;;;;;;5.70;2.43;;;;;;;;;;4967867;28;20456;-92
2023/05/17 12:53:40;;;;;;;5.13;2.90;;;;;;;;;;4991348;28;20888;-90
2023/05/17 12:56:06;;;;;;;5.43;2.90;;;;;;;;;;4980827;28;20446;-91
2023/05/17 12:58:32;;;;;;;4.47;2.30;;;;;;;;;;4980425;28;20491;-92
2023/05/17 13:01:13;;;;;;;5.67;2.77;;;;;;;;;;4976424;28;20438;-94
2023/05/17 13:03:43;;;;;;;4.87;3.30;;;;;;;;;;4974786;28;20510;-91
2023/05/17 13:06:09;;;;;;;5.87;3.47;;;;;;;;;;4979637;28;20458;-90
2023/05/17 13:08:35;;;;;;;3.70;2.37;;;;;;;;;;4988504;28;20426;-89
2023/05/17 13:11:08;;;;;;;5.00;2.70;;;;;;;;;;4972118;28;20981;-89
2023/05/17 13:13:34;;;;;;;7.00;3.17;;;;;;;;;;4974592;28;21074;-90
2023/05/17 13:16:00;;;;;;;3.60;3.00;;;;;;;;;;4976305;28;20459;-91
2023/05/17 13:18:27;;;;;;;5.07;2.33;;;;;;;;;;4977179;28;20465;-90
2023/05/17 13:20:53;;;;;;;3.87;2.80;;;;;;;;;;4997709;28;20439;-90
2023/05/17 13:23:19;;;;;;;5.80;2.43;;;;;;;;;;4975324;28;20557;-91
2023/05/17 13:25:45;;;;;;;4.80;2.43;;;;;;;;;;5001776;28;21293;-91
2023/05/17 13:28:11;;;;;;;5.93;2.63;;;;;;;;;;4997435;28;20450;-92
2023/05/17 13:30:37;;;;;;;4.20;2.53;;;;;;;;;;4996774;28;20430;-93
2023/05/17 13:33:04;;;;;;;3.23;2.53;;;;;;;;;;4995127;28;20461;-91
2023/05/17 13:35:30;;;;;;;5.60;2.93;;;;;;;;;;4980937;28;20430;-91
2023/05/17 13:37:56;;;;;;;4.10;2.03;;;;;;;;;;4976101;28;20445;-92
2023/05/17 13:40:22;;;;;;;5.20;2.77;;;;;;;;;;4996035;28;20449;-92
2023/05/17 13:42:48;;;;;;;3.50;2.17;;;;;;;;;;4979984;28;20467;-91
2023/05/17 13:45:14;;;;;;;4.60;2.40;;;;;;;;;;4998999;28;20475;-91
2023/05/17 13:47:40;;;;;;;7.23;2.70;;;;;;;;;;4979686;28;20433;-91
2023/05/17 13:50:06;;;;;;;3.57;2.40;;;;;;;;;;4996112;28;20941;-92
2023/05/17 13:52:32;;;;;;;6.20;2.60;;;;;;;;;;4995225;28;20651;-92
2023/05/17 13:54:58;;;;;;;5.30;3.10;;;;;;;;;;4980538;28;20505;-91
2023/05/17 13:57:24;;;;;;;5.17;3.00;;;;;;;;;;4995510;28;20438;-91
2023/05/17 13:59:50;;;;;;;4.77;2.80;;;;;;;;;;4966633;28;20975;-92
2023/05/17 14:02:17;;;;;;;4.20;2.90;;;;;;;;;;4996068;28;20506;-92
2023/05/17 14:04:43;;;;;;;6.70;2.80;;;;;;;;;;4971771;28;20418;-91
2023/05/17 14:07:09;;;;;;;6.83;3.27;;;;;;;;;;4994342;28;20429;-92
2023/05/17 14:09:35;;;;;;;5.60;2.97;;;;;;;;;;4998317;28;20442;-92
2023/05/17 14:12:01;;;;;;;4.17;2.87;;;;;;;;;;4998980;28;20496;-93
2023/05/17 14:14:27;;;;;;;5.00;2.33;;;;;;;;;;4988020;28;20430;-92
2023/05/17 14:16:57;;;;;;;8.53;2.70;;;;;;;;;;4981308;28;20940;-92
2023/05/17 14:19:23;;;;;;;4.53;2.30;;;;;;;;;;5007573;28;20450;-91
2023/05/17 14:21:49;;;;;;;3.50;2.37;;;;;;;;;;4982441;28;20426;-92
2023/05/17 14:24:15;;;;;;;3.93;2.30;;;;;;;;;;4994887;28;20956;-91
2023/05/17 14:26:41;;;;;;;3.43;2.83;;;;;;;;;;4994558;28;20434;-92
2023/05/17 14:29:07;;;;;;;4.10;2.47;;;;;;;;;;4996031;28;20529;-92
2023/05/17 14:31:33;;;;;;;4.40;2.63;;;;;;;;;;4995646;28;20454;-93
2023/05/17 14:34:01;;;;;;;7.60;2.73;;;;;;;;;;4967853;28;20464;-91
2023/05/17 14:36:27;;;;;;;4.13;2.80;;;;;;;;;;5008893;28;20437;-92
2023/05/17 14:38:53;;;;;;;4.50;2.37;;;;;;;;;;4994195;28;21130;-91
2023/05/17 14:41:20;;;;;;;3.53;2.23;;;;;;;;;;4993461;28;20498;-91
2023/05/17 14:43:46;;;;;;;4.23;2.60;;;;;;;;;;4985444;28;20533;-93